Time;durP1;ratioP1;P1;durP2;ratioP2;P2;SDS_P1;SDS_P2;PMS_P1;PMS_P2;Temp;Humidity;BMP_temperature;BMP_pressure;BME280_temperature;BME280_humidity;BME280_pressure;Samples;Min_cycle;Max_cycle;Signal;HPM_P1;HPM_P2
2021/12/22 00:02:23;;;;;;;4.30;4.10;;;-0.10;99.90;0.10;102294.00;;;;5098236;28;20188;-73
2021/12/22 00:04:56;;;;;;;1.13;1.13;;;0.00;99.90;-0.30;102333.00;;;;5116496;28;20180;-72
2021/12/22 00:07:32;;;;;;;2.77;2.00;;;-0.10;99.90;-0.60;102331.00;;;;5116602;28;20200;-72
2021/12/22 00:10:06;;;;;;;1.23;1.23;;;-0.30;99.90;-0.50;102302.00;;;;5115186;28;20688;-72
2021/12/22 00:12:40;;;;;;;2.10;1.90;;;-0.30;99.90;-0.50;102343.00;;;;5115429;28;20280;-72
2021/12/22 00:15:18;;;;;;;1.93;0.97;;;-0.30;99.90;-0.40;102349.00;;;;5097757;28;20271;-72
2021/12/22 00:17:54;;;;;;;1.27;1.27;;;-0.30;99.90;-0.30;102293.00;;;;5097937;28;20268;-72
2021/12/22 00:20:29;;;;;;;1.00;1.00;;;-0.30;99.90;-0.40;102343.00;;;;5114912;28;20180;-72
2021/12/22 00:23:03;;;;;;;0.80;0.80;;;-0.30;99.90;-0.40;102332.00;;;;5114970;28;20503;-72
2021/12/22 00:25:37;;;;;;;1.20;1.20;;;-0.40;99.90;-0.40;102292.00;;;;5114577;28;20183;-72
2021/12/22 00:28:14;;;;;;;3.20;3.00;;;-0.30;99.90;-0.30;102288.00;;;;5114377;28;20629;-71
2021/12/22 00:30:58;;;;;;;0.60;0.60;;;-0.30;99.90;-0.40;102340.00;;;;5114553;28;20204;-72
2021/12/22 00:33:32;;;;;;;1.33;1.30;;;-0.30;99.90;-0.30;102339.00;;;;5114327;28;20234;-72
2021/12/22 00:36:15;;;;;;;0.60;0.60;;;-0.30;99.90;-0.40;102297.00;;;;5115132;28;20205;-72
2021/12/22 00:38:51;;;;;;;0.60;0.60;;;-0.30;99.90;-0.60;102336.00;;;;5098210;28;20168;-72
2021/12/22 00:41:28;;;;;;;1.47;1.47;;;-0.40;99.90;-0.30;102360.00;;;;5115783;28;20221;-72
2021/12/22 00:44:12;;;;;;;0.97;0.97;;;-0.40;99.90;-0.30;102337.00;;;;5097029;28;20183;-72
2021/12/22 00:46:53;;;;;;;1.23;1.23;;;-0.40;99.90;-0.30;102338.00;;;;5114444;28;20221;-72
2021/12/22 00:49:29;;;;;;;0.60;0.60;;;-0.40;99.90;-0.20;102345.00;;;;5114120;28;20203;-72
2021/12/22 00:52:02;;;;;;;1.63;1.53;;;-0.30;99.90;-0.30;102354.00;;;;5114121;28;20202;-72
2021/12/22 00:54:45;;;;;;;1.37;1.37;;;-0.30;99.90;-0.40;102338.00;;;;5114584;28;20544;-72
2021/12/22 00:57:16;;;;;;;0.80;0.80;;;-0.40;99.90;-0.50;102344.00;;;;5113907;28;20178;-71
2021/12/22 00:59:50;;;;;;;0.60;0.60;;;-0.40;99.90;-0.50;102332.00;;;;5114194;28;20164;-73
2021/12/22 01:02:26;;;;;;;0.60;0.60;;;-0.40;99.90;-0.30;102328.00;;;;5113942;28;20184;-73
2021/12/22 01:04:57;;;;;;;1.00;1.00;;;-0.40;99.90;-0.10;102330.00;;;;5097530;28;20569;-73
2021/12/22 01:07:25;;;;;;;5.67;5.37;;;-0.40;99.90;-0.20;102325.00;;;;5113906;28;20180;-72
2021/12/22 01:09:59;;;;;;;0.60;0.60;;;-0.30;99.90;-0.30;102339.00;;;;5114901;28;20261;-72
2021/12/22 01:12:34;;;;;;;2.40;2.30;;;-0.30;99.90;-0.40;102339.00;;;;5114780;28;20206;-73
2021/12/22 01:15:11;;;;;;;0.60;0.60;;;-0.50;99.90;-0.10;102332.00;;;;5113660;28;20272;-73
2021/12/22 01:17:50;;;;;;;0.60;0.60;;;-0.30;99.90;0.10;102336.00;;;;5096963;28;20628;-72
2021/12/22 01:20:49;;;;;;;0.60;0.60;;;-0.20;99.90;-0.30;102283.00;;;;5113879;28;20183;-73
2021/12/22 01:23:24;;;;;;;0.60;0.60;;;-0.30;99.90;-0.40;102327.00;;;;5113058;28;20282;-73
2021/12/22 01:26:00;;;;;;;2.47;2.40;;;-0.40;99.90;-0.30;102330.00;;;;5114531;28;20619;-73
2021/12/22 01:28:40;;;;;;;1.57;1.57;;;-0.40;99.90;-0.40;102317.00;;;;5112694;28;20283;-73
2021/12/22 01:31:20;;;;;;;0.97;0.97;;;-0.50;99.90;-0.90;102316.00;;;;5114797;28;20637;-73
2021/12/22 01:33:53;;;;;;;0.60;0.60;;;-0.60;99.90;-1.20;102301.00;;;;5096714;28;20180;-73
2021/12/22 01:36:29;;;;;;;0.60;0.60;;;-0.80;99.90;-0.80;102331.00;;;;5096401;28;20230;-73
2021/12/22 01:39:03;;;;;;;1.13;1.13;;;-0.80;99.90;-1.00;102328.00;;;;5096707;28;20262;-72
2021/12/22 01:41:39;;;;;;;3.33;3.03;;;-0.80;99.90;-0.90;102330.00;;;;5096403;28;20202;-73
2021/12/22 01:44:33;;;;;;;0.50;0.50;;;-0.80;99.90;-0.90;102328.00;;;;5096413;28;20188;-73
2021/12/22 01:50:12;;;;;;;0.60;0.60;;;-0.90;99.90;-0.30;102336.00;;;;5113454;28;20179;-73
2021/12/22 01:52:46;;;;;;;0.50;0.50;;;-0.60;99.90;-0.20;102310.00;;;;5096442;28;20615;-72
2021/12/22 01:55:39;;;;;;;0.60;0.60;;;-0.30;99.90;-0.50;102350.00;;;;5096078;28;20282;-72
2021/12/22 01:58:38;;;;;;;0.80;0.80;;;-0.50;99.90;-0.70;102346.00;;;;5096289;28;20174;-73
2021/12/22 02:01:10;;;;;;;0.60;0.60;;;-0.70;99.90;-0.80;102348.00;;;;5096409;28;20172;-73
2021/12/22 02:03:54;;;;;;;0.60;0.60;;;-0.70;99.90;-0.80;102350.00;;;;5113284;28;20199;-72
2021/12/22 02:06:34;;;;;;;0.70;0.70;;;-0.70;99.90;-1.00;102342.00;;;;5112866;28;20176;-73
2021/12/22 02:09:14;;;;;;;1.17;1.17;;;-0.80;99.90;-0.60;102348.00;;;;5112951;28;20635;-73
2021/12/22 02:11:51;;;;;;;0.60;0.60;;;-0.70;99.90;-0.90;102326.00;;;;5112187;28;20241;-72
2021/12/22 02:14:26;;;;;;;0.60;0.60;;;-0.80;99.90;-1.10;102339.00;;;;5113904;28;20190;-73
2021/12/22 02:17:02;;;;;;;1.33;1.33;;;-0.90;99.90;-1.00;102336.00;;;;5095976;28;20187;-72
2021/12/22 02:19:44;;;;;;;9.10;8.23;;;-0.90;99.90;-0.80;102342.00;;;;5095946;28;20175;-72
2021/12/22 02:22:23;;;;;;;4.03;3.77;;;-0.90;99.90;-0.70;102292.00;;;;5112674;28;20184;-72
2021/12/22 02:25:08;;;;;;;2.20;2.10;;;-0.80;99.90;-1.00;102319.00;;;;5095250;28;20190;-72
2021/12/22 02:27:54;;;;;;;7.43;3.13;;;-0.80;99.90;-1.20;102340.00;;;;5112836;28;20175;-72
2021/12/22 02:30:29;;;;;;;0.70;0.70;;;-1.00;99.90;-0.90;102298.00;;;;5097357;28;20616;-73
2021/12/22 02:33:19;;;;;;;0.60;0.60;;;-1.00;99.90;-0.90;102332.00;;;;5112328;28;20237;-73
2021/12/22 02:36:40;;;;;;;0.50;0.50;;;-0.90;99.90;-0.40;102328.00;;;;5112535;28;20180;-72
2021/12/22 02:39:01;;;;;;;0.50;0.50;;;-0.70;99.90;-0.80;102338.00;;;;5101563;28;20636;-73
2021/12/22 02:41:39;;;;;;;0.60;0.60;;;-0.70;99.90;-0.70;102341.00;;;;5095683;28;20275;-73
2021/12/22 02:44:13;;;;;;;0.60;0.60;;;-0.80;99.90;-0.80;102336.00;;;;5112915;28;20264;-72
2021/12/22 02:46:50;;;;;;;0.60;0.60;;;-0.90;99.90;-1.10;102339.00;;;;5095432;28;20268;-72
2021/12/22 02:49:28;;;;;;;0.60;0.60;;;-0.90;99.90;-1.20;102339.00;;;;5112573;28;20186;-72
2021/12/22 02:52:11;;;;;;;0.60;0.60;;;-1.00;99.90;-1.40;102328.00;;;;5113471;28;20207;-72
2021/12/22 02:54:55;;;;;;;0.80;0.80;;;-1.10;99.90;-0.50;102332.00;;;;5112114;28;20192;-73
2021/12/22 02:57:40;;;;;;;1.23;1.23;;;-0.80;99.90;-0.70;102349.00;;;;5112330;28;20179;-73
2021/12/22 03:03:12;;;;;;;0.60;0.60;;;-0.90;99.90;-0.90;102295.00;;;;5112596;28;20172;-73
2021/12/22 03:05:52;;;;;;;1.37;1.37;;;-0.90;99.90;-0.70;102341.00;;;;5112176;28;20244;-73
2021/12/22 03:08:24;;;;;;;0.60;0.60;;;-0.80;99.90;-0.60;102288.00;;;;5111705;28;20219;-73
2021/12/22 03:11:05;;;;;;;0.60;0.60;;;-0.70;99.90;-0.60;102337.00;;;;5112076;28;20213;-73
2021/12/22 03:13:43;;;;;;;0.60;0.60;;;-0.70;99.90;-0.80;102314.00;;;;5112449;28;20522;-73
2021/12/22 03:16:18;;;;;;;0.90;0.90;;;-0.80;99.90;-1.20;102349.00;;;;5112449;28;20187;-73
2021/12/22 03:18:55;;;;;;;1.00;1.00;;;-0.90;99.90;-1.20;102333.00;;;;5113596;28;20669;-74
2021/12/22 03:21:31;;;;;;;17.07;15.77;;;-1.00;99.90;-0.90;102346.00;;;;5116036;28;20229;-73
2021/12/22 03:24:04;;;;;;;0.60;0.60;;;-1.00;99.90;-0.50;102349.00;;;;5117072;28;20157;-73
2021/12/22 03:26:42;;;;;;;0.60;0.60;;;-0.60;99.90;-0.70;102340.00;;;;5117319;28;20663;-74
2021/12/22 03:29:18;;;;;;;0.70;0.70;;;-0.70;99.90;-0.90;102361.00;;;;5116055;28;20181;-73
2021/12/22 03:31:50;;;;;;;0.77;0.77;;;-0.80;99.90;-0.70;102347.00;;;;5117028;28;20248;-73
2021/12/22 03:34:21;;;;;;;0.60;0.60;;;-0.80;99.90;-0.80;102294.00;;;;5115443;28;20644;-73
2021/12/22 03:36:53;;;;;;;1.97;1.87;;;-0.80;99.90;-0.80;102341.00;;;;5115525;28;20194;-73
2021/12/22 03:39:32;;;;;;;0.60;0.60;;;-0.80;99.90;-0.80;102338.00;;;;5115545;28;20271;-73
2021/12/22 03:42:10;;;;;;;0.87;0.87;;;-0.80;99.90;-1.00;102339.00;;;;5099491;28;20180;-73
2021/12/22 03:44:46;;;;;;;0.60;0.60;;;-0.90;99.90;-1.00;102344.00;;;;5115726;28;20180;-73
2021/12/22 03:47:20;;;;;;;0.80;0.80;;;-1.00;99.90;-0.70;102334.00;;;;5116082;28;20263;-74
2021/12/22 03:49:49;;;;;;;10.50;2.63;;;-0.80;99.90;-0.80;102340.00;;;;5115304;28;20175;-73
2021/12/22 03:52:19;;;;;;;0.60;0.60;;;-0.80;99.90;-0.80;102327.00;;;;5098051;28;20207;-73
2021/12/22 03:54:54;;;;;;;6.47;4.83;;;-0.80;99.90;-1.00;102325.00;;;;5115709;28;20202;-73
2021/12/22 03:57:26;;;;;;;1.00;1.00;;;-0.80;99.90;-0.90;102325.00;;;;5115537;28;20179;-73
2021/12/22 03:59:59;;;;;;;1.17;1.17;;;-1.00;99.90;-1.20;102318.00;;;;5115232;28;20161;-73
2021/12/22 04:02:30;;;;;;;3.27;3.07;;;-1.00;99.90;-1.60;102318.00;;;;5115147;28;20206;-72
2021/12/22 04:05:00;;;;;;;3.67;2.23;;;-1.20;99.90;-1.70;102259.00;;;;5097932;28;20193;-73
2021/12/22 04:07:31;;;;;;;0.90;0.90;;;-1.40;99.90;-1.70;102317.00;;;;5116023;27;20198;-71
2021/12/22 04:10:18;;;;;;;0.73;0.73;;;-1.40;99.90;-2.00;102313.00;;;;5114917;28;20176;-73
2021/12/22 04:12:57;;;;;;;0.80;0.80;;;-1.50;99.90;-1.80;102317.00;;;;5099784;28;20199;-72
2021/12/22 04:15:34;;;;;;;0.50;0.50;;;-1.50;99.90;-1.40;102317.00;;;;5115409;28;20173;-73
2021/12/22 04:18:09;;;;;;;0.60;0.60;;;-1.50;99.90;-1.70;102259.00;;;;5115230;28;20178;-72
2021/12/22 04:20:42;;;;;;;0.50;0.50;;;-1.40;99.90;-1.70;102264.00;;;;5097566;28;20654;-73
2021/12/22 04:23:20;;;;;;;0.50;0.50;;;-1.40;99.90;-1.50;102319.00;;;;5114797;28;20180;-72
2021/12/22 04:25:54;;;;;;;1.60;1.60;;;-1.40;99.90;-1.50;102303.00;;;;5098158;28;20173;-71
2021/12/22 04:28:30;;;;;;;16.13;14.83;;;-1.40;99.90;-1.00;102304.00;;;;5116084;28;20180;-72
2021/12/22 04:31:10;;;;;;;1.30;1.30;;;-1.20;99.90;-1.20;102290.00;;;;5097913;28;20196;-72
2021/12/22 04:33:47;;;;;;;1.10;1.10;;;-1.30;99.90;-1.20;102315.00;;;;5114584;28;20192;-72
2021/12/22 04:36:21;;;;;;;0.73;0.73;;;-1.30;99.90;-1.00;102293.00;;;;5115970;27;20180;-72
2021/12/22 04:38:57;;;;;;;1.37;1.37;;;-1.30;99.90;-1.20;102293.00;;;;5097342;28;20180;-71
2021/12/22 04:41:31;;;;;;;0.60;0.60;;;-1.30;99.90;-1.10;102322.00;;;;5097864;28;20173;-72
2021/12/22 04:44:08;;;;;;;1.60;1.60;;;-1.20;99.90;-1.50;102310.00;;;;5097899;28;20167;-72
2021/12/22 04:46:44;;;;;;;2.23;2.13;;;-1.30;99.90;-1.50;102304.00;;;;5097420;28;20557;-72
2021/12/22 04:49:23;;;;;;;1.53;1.40;;;-1.30;99.90;-1.40;102294.00;;;;5114052;28;20663;-71
2021/12/22 04:52:07;;;;;;;1.00;1.00;;;-1.30;99.90;-1.60;102305.00;;;;5097074;28;20223;-71
2021/12/22 04:57:21;;;;;;;2.73;2.60;;;-1.40;99.90;-1.70;102295.00;;;;5114394;28;20274;-73
2021/12/22 05:00:00;;;;;;;0.90;0.90;;;-1.40;99.90;-1.60;102298.00;;;;5096806;28;20562;-71
2021/12/22 05:02:31;;;;;;;0.57;0.57;;;-1.40;99.90;-1.40;102302.00;;;;5113958;28;20212;-69
2021/12/22 05:05:02;;;;;;;1.30;1.30;;;-1.40;99.90;-1.10;102308.00;;;;5096461;28;20178;-72
2021/12/22 05:07:43;;;;;;;3.93;3.73;;;-1.20;99.90;-1.50;102294.00;;;;5097127;28;20187;-72
2021/12/22 05:10:23;;;;;;;1.70;1.63;;;-1.30;99.90;-1.30;102280.00;;;;5115014;28;20176;-71
2021/12/22 05:13:01;;;;;;;1.10;1.10;;;-1.30;99.90;-1.40;102293.00;;;;5113699;28;20571;-71
2021/12/22 05:15:40;;;;;;;1.47;1.47;;;-1.30;99.90;-1.50;102241.00;;;;5113625;28;20208;-72
2021/12/22 05:18:22;;;;;;;1.03;1.03;;;-1.30;99.90;-1.20;102291.00;;;;5113623;28;20191;-71
2021/12/22 05:21:05;;;;;;;0.50;0.50;;;-1.20;99.90;-1.10;102291.00;;;;5113778;28;20184;-71
2021/12/22 05:23:38;;;;;;;0.60;0.60;;;-1.20;99.90;-1.30;102295.00;;;;5097597;28;20267;-72
2021/12/22 05:26:12;;;;;;;0.67;0.67;;;-1.30;99.90;-1.10;102292.00;;;;5113424;28;20182;-72
2021/12/22 05:28:54;;;;;;;1.40;1.37;;;-1.20;99.90;-1.50;102288.00;;;;5097091;28;20184;-71
2021/12/22 05:31:31;;;;;;;1.20;1.20;;;-1.30;99.90;-1.30;102296.00;;;;5113562;28;20170;-72
2021/12/22 05:34:08;;;;;;;0.50;0.50;;;-1.20;99.90;-1.10;102296.00;;;;5114366;28;20668;-71
2021/12/22 05:36:41;;;;;;;0.60;0.60;;;-1.10;99.90;-1.00;102293.00;;;;5113599;28;20176;-72
2021/12/22 05:39:17;;;;;;;0.50;0.50;;;-1.10;99.90;-1.10;102268.00;;;;5113526;28;20168;-72
2021/12/22 05:41:54;;;;;;;1.40;1.33;;;-1.10;99.90;-1.30;102278.00;;;;5113863;28;20174;-72
2021/12/22 05:44:33;;;;;;;0.50;0.50;;;-1.10;99.90;-1.20;102258.00;;;;5113822;28;20163;-72
2021/12/22 05:47:08;;;;;;;0.60;0.60;;;-1.20;99.90;-1.10;102293.00;;;;5114221;28;20204;-71
2021/12/22 05:49:49;;;;;;;0.80;0.80;;;-1.10;99.90;-0.90;102305.00;;;;5096450;28;20205;-71
2021/12/22 05:52:23;;;;;;;0.60;0.60;;;-1.00;99.90;-1.10;102244.00;;;;5113387;28;20217;-72
2021/12/22 05:54:56;;;;;;;0.70;0.70;;;-1.00;99.90;-1.10;102300.00;;;;5113436;28;20604;-72
2021/12/22 05:57:30;;;;;;;0.60;0.60;;;-1.10;99.90;-1.20;102307.00;;;;5114200;28;20271;-72
2021/12/22 06:00:05;;;;;;;0.83;0.83;;;-1.10;99.90;-1.20;102310.00;;;;5096018;28;20168;-72
2021/12/22 06:02:42;;;;;;;0.60;0.60;;;-1.20;99.90;-1.40;102310.00;;;;5095632;28;20237;-73
2021/12/22 06:05:20;;;;;;;0.57;0.57;;;-1.20;99.90;-1.30;102310.00;;;;5096550;28;20572;-72
2021/12/22 06:08:00;;;;;;;0.70;0.70;;;-1.30;99.90;-1.10;102299.00;;;;5112807;28;20203;-72
2021/12/22 06:10:37;;;;;;;19.63;18.37;;;-1.20;99.90;-1.30;102297.00;;;;5112947;28;20204;-72
2021/12/22 06:13:17;;;;;;;1.63;1.60;;;-1.20;99.90;-1.30;102294.00;;;;5095774;28;20298;-73
2021/12/22 06:15:53;;;;;;;0.60;0.60;;;-1.20;99.90;-1.10;102232.00;;;;5095913;28;20189;-72
2021/12/22 06:18:29;;;;;;;0.60;0.60;;;-1.20;99.90;-1.00;102296.00;;;;5095792;28;20187;-73
2021/12/22 06:21:08;;;;;;;3.33;3.23;;;-1.10;99.90;-1.10;102286.00;;;;5095856;28;20183;-72
2021/12/22 06:23:45;;;;;;;3.50;2.00;;;-1.10;99.90;-0.90;102242.00;;;;5096141;28;20200;-72
2021/12/22 06:26:24;;;;;;;1.10;1.10;;;-1.00;99.90;-1.30;102280.00;;;;5112485;28;20231;-72
2021/12/22 06:29:01;;;;;;;3.20;3.10;;;-1.10;99.90;-1.60;102275.00;;;;5096957;28;20180;-73
2021/12/22 06:31:37;;;;;;;0.60;0.60;;;-1.20;99.90;-1.30;102286.00;;;;5112098;28;20253;-73
2021/12/22 06:34:19;;;;;;;0.90;0.90;;;-1.30;99.90;-1.50;102285.00;;;;5096314;28;20645;-72
2021/12/22 06:36:55;;;;;;;0.60;0.60;;;-1.30;99.90;-1.30;102229.00;;;;5095680;28;20564;-72
2021/12/22 06:39:35;;;;;;;0.60;0.60;;;-1.20;99.90;-1.30;102271.00;;;;5096012;28;20218;-71
2021/12/22 06:42:14;;;;;;;0.60;0.60;;;-1.20;99.90;-1.50;102282.00;;;;5112298;28;20159;-72
2021/12/22 06:44:49;;;;;;;0.60;0.60;;;-1.30;99.90;-1.60;102221.00;;;;5112509;28;20180;-72
2021/12/22 06:47:23;;;;;;;0.60;0.60;;;-1.40;99.90;-1.50;102247.00;;;;5112282;28;20176;-73
2021/12/22 06:49:56;;;;;;;0.70;0.70;;;-1.50;99.90;-1.70;102292.00;;;;5112446;28;20620;-72
2021/12/22 06:52:28;;;;;;;0.80;0.80;;;-1.40;99.90;-1.50;102289.00;;;;5112532;28;20215;-72
2021/12/22 06:54:59;;;;;;;0.60;0.60;;;-1.40;99.90;-1.40;102278.00;;;;5117410;28;20172;-73
2021/12/22 06:57:38;;;;;;;0.70;0.70;;;-1.40;99.90;-1.10;102278.00;;;;5099668;28;20632;-72
2021/12/22 07:00:15;;;;;;;0.70;0.70;;;-1.30;99.90;-0.90;102288.00;;;;5117524;28;20180;-72
2021/12/22 07:02:47;;;;;;;0.70;0.70;;;-1.10;99.90;-1.60;102286.00;;;;5098686;28;20203;-72
2021/12/22 07:05:29;;;;;;;0.60;0.60;;;-1.30;99.90;-1.90;102288.00;;;;5099491;28;20609;-72
2021/12/22 07:08:04;;;;;;;0.67;0.67;;;-1.50;99.90;-1.50;102280.00;;;;5099672;28;20176;-73
2021/12/22 07:10:40;;;;;;;0.80;0.80;;;-1.40;99.90;-1.70;102290.00;;;;5100114;28;20171;-72
2021/12/22 07:13:17;;;;;;;0.50;0.50;;;-1.40;99.90;-1.80;102224.00;;;;5116005;28;20191;-72
2021/12/22 07:15:54;;;;;;;0.60;0.60;;;-1.50;99.90;-1.80;102274.00;;;;5115920;28;20160;-72
2021/12/22 07:18:34;;;;;;;2.40;2.30;;;-1.60;99.90;-1.50;102278.00;;;;5099460;28;20659;-72
2021/12/22 07:21:12;;;;;;;0.60;0.60;;;-1.50;99.90;-1.50;102285.00;;;;5116062;28;20159;-71
2021/12/22 07:23:50;;;;;;;0.93;0.93;;;-1.50;99.90;-1.60;102292.00;;;;5117300;28;20172;-72
2021/12/22 07:26:32;;;;;;;0.70;0.70;;;-1.50;99.90;-1.80;102287.00;;;;5099224;28;20190;-72
2021/12/22 07:29:06;;;;;;;1.33;1.33;;;-1.50;99.90;-1.90;102279.00;;;;5115770;28;20190;-72
2021/12/22 07:31:41;;;;;;;0.90;0.90;;;-1.60;99.90;-2.00;102268.00;;;;5098946;28;20233;-72
2021/12/22 07:34:27;;;;;;;0.50;0.50;;;-1.60;99.90;-1.40;102274.00;;;;5115539;28;20174;-72
2021/12/22 07:37:36;;;;;;;0.70;0.70;;;-1.40;99.90;-1.60;102274.00;;;;5115707;28;20190;-72
2021/12/22 07:40:21;;;;;;;1.13;1.13;;;-1.20;99.90;-2.10;102143.00;;;;5116869;28;20179;-72
2021/12/22 07:42:58;;;;;;;0.60;0.60;;;-1.50;99.90;-2.00;102230.00;;;;5115533;28;20172;-72
2021/12/22 07:45:28;;;;;;;1.30;1.30;;;-1.60;99.90;-1.80;102222.00;;;;5115195;28;20174;-72
2021/12/22 07:47:54;;;;;;;2.17;1.93;;;-1.50;99.90;-1.80;102273.00;;;;5098774;28;20192;-73
2021/12/22 07:50:29;;;;;;;1.80;1.70;;;-1.50;99.90;-1.90;102267.00;;;;5115607;28;20168;-71
2021/12/22 07:53:03;;;;;;;1.03;1.03;;;-1.50;99.90;-1.60;102280.00;;;;5098679;28;20566;-72
2021/12/22 07:55:37;;;;;;;0.83;0.83;;;-1.40;99.90;-1.50;102285.00;;;;5115818;28;20255;-72
2021/12/22 07:58:13;;;;;;;0.73;0.73;;;-1.40;99.90;-1.30;102279.00;;;;5115057;28;20184;-72
2021/12/22 08:00:47;;;;;;;1.00;1.00;;;-1.20;99.90;-1.50;102267.00;;;;5116735;28;20172;-73
2021/12/22 08:03:24;;;;;;;0.70;0.70;;;-1.30;99.90;-1.60;102284.00;;;;5098375;28;20216;-72
2021/12/22 08:05:58;;;;;;;0.80;0.80;;;-1.30;99.90;-1.60;102273.00;;;;5098166;28;20171;-73
2021/12/22 08:08:38;;;;;;;1.77;1.73;;;-1.30;99.90;-1.60;102289.00;;;;5097882;28;20553;-73
2021/12/22 08:11:18;;;;;;;0.60;0.60;;;-1.30;99.90;-1.40;102287.00;;;;5114526;28;20321;-71
2021/12/22 08:13:55;;;;;;;0.63;0.63;;;-1.20;99.90;-1.40;102302.00;;;;5098168;28;20179;-72
2021/12/22 08:16:31;;;;;;;1.03;1.03;;;-1.10;99.90;-1.40;102262.00;;;;5116414;27;20204;-72
2021/12/22 08:19:10;;;;;;;0.80;0.80;;;-1.10;99.90;-1.00;102289.00;;;;5098309;28;20182;-73
2021/12/22 08:21:44;;;;;;;2.67;2.57;;;-1.00;99.90;-1.30;102276.00;;;;5098374;28;20184;-72
2021/12/22 08:24:18;;;;;;;1.43;1.43;;;-1.00;99.90;-1.40;102272.00;;;;5098336;28;20191;-72
2021/12/22 08:26:52;;;;;;;1.40;1.30;;;-1.00;99.90;-1.10;102265.00;;;;5097514;28;20180;-72
2021/12/22 08:29:26;;;;;;;17.70;16.77;;;-0.90;99.90;-1.30;102279.00;;;;5114538;28;20185;-72
2021/12/22 08:32:00;;;;;;;1.10;1.10;;;-0.90;99.90;-1.30;102220.00;;;;5097227;28;20215;-72
2021/12/22 08:34:41;;;;;;;1.10;1.10;;;-0.90;99.90;-1.20;102270.00;;;;5097042;28;20554;-73
2021/12/22 08:40:06;;;;;;;1.07;1.07;;;-0.90;99.90;-1.40;102286.00;;;;5114558;28;20267;-73
2021/12/22 08:42:38;;;;;;;3.33;2.97;;;-0.90;99.90;-1.10;102283.00;;;;5097788;28;20661;-73
2021/12/22 08:45:10;;;;;;;0.83;0.83;;;-0.80;99.90;-1.20;102280.00;;;;5114273;28;20590;-73
2021/12/22 08:47:49;;;;;;;3.60;3.40;;;-0.70;99.90;-1.30;102284.00;;;;5097401;28;20640;-73
2021/12/22 08:50:24;;;;;;;3.80;2.40;;;-0.80;99.90;-1.40;102277.00;;;;5114501;28;20173;-72
2021/12/22 08:53:01;;;;;;;2.43;2.33;;;-0.80;99.90;-1.20;102267.00;;;;5097610;28;20217;-72
2021/12/22 08:55:38;;;;;;;1.17;1.17;;;-0.80;99.90;-1.30;102265.00;;;;5114756;28;20221;-72
2021/12/22 08:58:14;;;;;;;0.70;0.70;;;-0.70;99.90;-0.90;102257.00;;;;5097280;28;20187;-72
2021/12/22 09:00:49;;;;;;;0.50;0.50;;;-0.60;99.90;-0.70;102270.00;;;;5097479;28;20620;-72
2021/12/22 09:03:47;;;;;;;0.50;0.50;;;-0.50;99.90;-0.30;102261.00;;;;5097039;28;20628;-72
2021/12/22 09:06:20;;;;;;;1.63;1.53;;;-0.30;99.90;0.00;102270.00;;;;5113482;28;20196;-72
2021/12/22 09:08:52;;;;;;;1.00;1.00;;;0.00;99.90;-0.10;102281.00;;;;5115318;28;20176;-72
2021/12/22 09:11:30;;;;;;;1.27;1.17;;;0.00;99.90;0.30;102279.00;;;;5113682;28;20160;-72
2021/12/22 09:14:06;;;;;;;2.40;2.30;;;0.30;99.90;0.10;102264.00;;;;5114096;28;20164;-71
2021/12/22 09:16:43;;;;;;;1.63;1.53;;;0.30;99.90;-0.20;102271.00;;;;5113073;28;20548;-72
2021/12/22 09:19:22;;;;;;;5.70;1.37;;;0.30;99.90;-0.10;102208.00;;;;5114775;28;20183;-72
2021/12/22 09:22:04;;;;;;;1.83;1.73;;;0.30;99.90;0.20;102259.00;;;;5113701;28;20176;-71
2021/12/22 09:24:44;;;;;;;1.77;1.67;;;0.50;99.90;0.10;102251.00;;;;5097349;28;20175;-72
2021/12/22 09:27:19;;;;;;;2.20;1.13;;;0.40;99.90;0.10;102241.00;;;;5096643;28;20184;-72
2021/12/22 09:29:53;;;;;;;2.40;2.20;;;0.60;99.90;0.30;102266.00;;;;5113706;28;20185;-71
2021/12/22 09:32:29;;;;;;;1.07;1.07;;;0.60;99.90;0.10;102256.00;;;;5113397;28;20657;-71
2021/12/22 09:35:04;;;;;;;1.43;1.37;;;0.60;99.90;0.60;102222.00;;;;5114532;28;20525;-71
2021/12/22 09:37:38;;;;;;;0.50;0.50;;;0.60;99.90;0.20;102261.00;;;;5113176;28;20190;-72
2021/12/22 09:40:15;;;;;;;0.40;0.40;;;0.70;99.90;0.50;102258.00;;;;5114401;28;20175;-72
2021/12/22 09:42:52;;;;;;;0.73;0.67;;;0.80;99.90;0.90;102275.00;;;;5096919;28;20180;-71
2021/12/22 09:45:29;;;;;;;0.83;0.83;;;0.90;99.90;0.90;102256.00;;;;5096486;28;20179;-71
2021/12/22 09:50:54;;;;;;;1.27;1.27;;;1.30;99.90;1.70;102264.00;;;;5113028;28;20203;-73
2021/12/22 09:53:38;;;;;;;2.53;2.43;;;1.60;99.90;1.40;102257.00;;;;5113285;28;20201;-72
2021/12/22 09:56:22;;;;;;;0.93;0.93;;;1.70;99.90;2.30;102252.00;;;;5112873;28;20160;-72
2021/12/22 09:58:59;;;;;;;1.17;1.07;;;2.10;99.90;1.90;102254.00;;;;5096241;28;20714;-72
2021/12/22 10:01:38;;;;;;;2.30;2.10;;;2.00;99.90;2.10;102252.00;;;;5112853;28;20691;-72
2021/12/22 10:04:16;;;;;;;0.30;0.30;;;2.10;99.90;2.00;102266.00;;;;5096152;28;20270;-72
2021/12/22 10:06:53;;;;;;;0.40;0.40;;;2.20;99.90;1.90;102264.00;;;;5112811;28;20180;-71
2021/12/22 10:09:36;;;;;;;0.80;0.80;;;2.20;99.90;2.50;102271.00;;;;5112596;28;20219;-71
2021/12/22 10:12:19;;;;;;;1.30;1.30;;;2.40;99.90;1.70;102203.00;;;;5096473;28;20577;-72
2021/12/22 10:15:10;;;;;;;0.67;0.63;;;2.40;99.90;2.10;102246.00;;;;5096593;28;20176;-72
2021/12/22 10:17:47;;;;;;;0.40;0.40;;;2.30;99.90;2.80;102256.00;;;;5096010;28;20180;-72
2021/12/22 10:20:27;;;;;;;0.47;0.47;;;2.60;99.90;3.00;102258.00;;;;5096081;28;20225;-72
2021/12/22 10:33:31;;;;;;;1.10;1.10;;;2.30;99.90;1.50;102188.00;;;;5051273;28;20544;-72
2021/12/22 10:36:25;;;;;;;4.73;4.03;;;2.20;99.90;2.30;102242.00;;;;5049544;28;20186;-71
2021/12/22 10:39:01;;;;;;;0.40;0.40;;;2.30;99.90;2.10;102190.00;;;;5032896;28;20212;-70
2021/12/22 10:41:39;;;;;;;0.50;0.50;;;2.40;99.90;2.30;102201.00;;;;5033131;28;20242;-71
2021/12/22 10:44:18;;;;;;;0.50;0.50;;;2.60;99.90;2.60;102244.00;;;;5050843;28;20570;-70
2021/12/22 10:47:14;;;;;;;0.73;0.60;;;2.80;99.90;3.10;102255.00;;;;5049219;28;20177;-71
2021/12/22 10:50:08;;;;;;;0.97;0.97;;;3.00;99.90;3.00;102255.00;;;;5032584;28;20210;-71
2021/12/22 10:52:49;;;;;;;1.27;1.23;;;3.00;99.90;2.80;102257.00;;;;5048674;28;20201;-70
2021/12/22 10:55:36;;;;;;;0.40;0.40;;;3.00;99.90;2.70;102253.00;;;;5049166;28;20174;-71
2021/12/22 10:58:20;;;;;;;0.30;0.30;;;2.90;99.90;2.80;102252.00;;;;5048865;28;20617;-71
2021/12/22 11:01:16;;;;;;;0.40;0.40;;;3.00;99.90;3.20;102214.00;;;;5048819;28;20178;-72
2021/12/22 11:04:05;;;;;;;0.30;0.30;;;3.00;99.90;3.20;102250.00;;;;5045446;28;20210;-71
2021/12/22 11:06:45;;;;;;;0.80;0.80;;;3.10;99.90;3.60;102248.00;;;;5048627;28;20178;-70
2021/12/22 11:09:25;;;;;;;1.93;1.83;;;3.40;99.90;4.10;102261.00;;;;5049936;28;20186;-70
2021/12/22 11:12:07;;;;;;;0.47;0.47;;;3.70;99.90;3.40;102239.00;;;;5031969;28;20256;-70
2021/12/22 11:14:51;;;;;;;0.83;0.80;;;3.70;99.90;4.10;102265.00;;;;5048658;28;20659;-71
2021/12/22 11:17:32;;;;;;;1.17;1.17;;;3.80;99.90;2.60;102214.00;;;;5032839;28;20178;-70
2021/12/22 11:20:05;;;;;;;1.70;1.60;;;3.20;99.90;3.40;102212.00;;;;5032881;28;20192;-71
2021/12/22 11:23:00;;;;;;;0.60;0.60;;;3.30;99.90;4.40;102234.00;;;;5048224;28;20205;-71
2021/12/22 11:25:39;;;;;;;1.73;1.63;;;3.90;99.90;4.20;102248.00;;;;5048338;28;20244;-70
2021/12/22 11:28:12;;;;;;;2.50;1.20;;;4.10;99.90;4.40;102257.00;;;;5048275;28;20182;-70
2021/12/22 11:30:49;;;;;;;4.57;4.27;;;4.20;99.90;4.30;102247.00;;;;5048319;28;20166;-70
2021/12/22 11:33:30;;;;;;;0.83;0.60;;;4.10;99.90;4.90;102195.00;;;;5032210;28;20192;-71
2021/12/22 11:36:06;;;;;;;0.20;0.20;;;4.40;99.90;4.60;102246.00;;;;5048629;28;20249;-70
2021/12/22 11:38:43;;;;;;;0.30;0.30;;;4.50;99.90;5.00;102244.00;;;;5047555;28;20213;-70
2021/12/22 11:41:21;;;;;;;1.00;0.97;;;4.60;99.90;4.70;102237.00;;;;5031695;28;20188;-70
2021/12/22 11:43:57;;;;;;;4.00;3.23;;;4.70;99.90;4.70;102232.00;;;;5039402;28;20179;-70
2021/12/22 11:46:38;;;;;;;1.67;1.57;;;4.60;99.90;5.00;102234.00;;;;5018443;28;20190;-70
2021/12/22 11:49:17;;;;;;;0.53;0.53;;;4.90;99.90;5.30;102230.00;;;;5034938;28;20598;-70
2021/12/22 11:51:56;;;;;;;4.20;2.43;;;5.10;99.90;5.40;102221.00;;;;5034411;28;20210;-69
2021/12/22 11:54:32;;;;;;;0.70;0.70;;;5.10;99.90;5.20;102210.00;;;;5035070;28;20167;-70
2021/12/22 11:57:19;;;;;;;0.50;0.50;;;4.90;99.90;5.00;102209.00;;;;5018693;28;20182;-70
2021/12/22 11:59:53;;;;;;;1.27;0.57;;;4.90;99.90;5.00;102215.00;;;;5034372;28;20624;-70
2021/12/22 12:02:38;;;;;;;8.20;4.27;;;4.90;99.90;4.20;102148.00;;;;5034840;28;20622;-69